TimeEDT,TemperatureF,Dew PointF,Humidity,Sea Level PressureIn,VisibilityMPH,Wind Direction,Wind SpeedMPH,Gust SpeedMPH,PrecipitationIn,Events,Conditions,WindDirDegrees,DateUTC
12:53 AM,80.1,78.1,94,30.05,10.0,SSE,5.8,-,N/A,,Clear,150,2013-08-17 04:53:00
1:53 AM,80.1,78.1,94,30.05,10.0,SSE,4.6,-,N/A,,Clear,160,2013-08-17 05:53:00
2:53 AM,79.0,78.1,97,30.04,10.0,SSE,3.5,-,N/A,,Clear,160,2013-08-17 06:53:00
3:53 AM,78.1,78.1,100,30.04,10.0,Calm,Calm,-,N/A,,Clear,0,2013-08-17 07:53:00
4:53 AM,77.0,77.0,100,30.03,10.0,SSE,3.5,-,N/A,,Clear,150,2013-08-17 08:53:00
5:53 AM,77.0,77.0,100,30.03,10.0,SE,3.5,-,N/A,,Clear,140,2013-08-17 09:53:00
6:53 AM,79.0,78.1,97,30.04,10.0,ESE,3.5,-,N/A,,Clear,120,2013-08-17 10:53:00
7:53 AM,81.0,79.0,94,30.06,10.0,SSE,4.6,-,N/A,,Clear,150,2013-08-17 11:53:00
8:53 AM,84.0,79.0,85,30.08,10.0,SE,8.1,-,N/A,,Partly Cloudy,140,2013-08-17 12:53:00
9:53 AM,87.1,78.1,74,30.08,10.0,SE,10.4,-,N/A,,Partly Cloudy,140,2013-08-17 13:53:00
10:53 AM,89.1,77.0,67,30.09,10.0,SE,12.7,-,N/A,,Clear,130,2013-08-17 14:53:00
11:53 AM,89.1,75.9,65,30.09,10.0,SE,15.0,-,N/A,,Clear,130,2013-08-17 15:53:00
12:53 PM,90.0,77.0,65,30.07,10.0,SE,13.8,-,N/A,,Clear,130,2013-08-17 16:53:00
1:53 PM,90.0,77.0,65,30.07,10.0,ESE,16.1,-,N/A,,Scattered Clouds,110,2013-08-17 17:53:00
2:53 PM,90.0,75.9,63,30.05,10.0,SE,15.0,23.0,N/A,,Clear,130,2013-08-17 18:53:00
3:53 PM,89.1,75.9,65,30.04,10.0,ESE,16.1,-,N/A,,Clear,110,2013-08-17 19:53:00
4:53 PM,88.0,75.9,67,30.02,10.0,ESE,16.1,20.7,N/A,,Clear,120,2013-08-17 20:53:00
5:53 PM,86.0,77.0,74,30.04,10.0,East,13.8,-,N/A,,Clear,100,2013-08-17 21:53:00
6:53 PM,84.0,75.9,76,30.05,10.0,SE,10.4,-,N/A,,Clear,130,2013-08-17 22:53:00
7:53 PM,82.9,77.0,82,30.07,10.0,ESE,5.8,-,N/A,,Clear,110,2013-08-17 23:53:00
8:53 PM,82.0,77.0,85,30.09,10.0,ESE,6.9,-,N/A,,Clear,110,2013-08-18 00:53:00
9:53 PM,82.0,77.0,85,30.09,10.0,East,4.6,-,N/A,,Clear,100,2013-08-18 01:53:00
10:53 PM,81.0,77.0,88,30.10,10.0,East,6.9,-,N/A,,Clear,100,2013-08-18 02:53:00
11:53 PM,81.0,78.1,91,30.09,10.0,East,8.1,-,N/A,,Clear,100,2013-08-18 03:53:00